sensor_id;sensor_type;location;lat;lon;timestamp;P1;durP1;ratioP1;P2;durP2;ratioP2
4810;SDS011;2419;51.276;6.472;2023-09-12T00:00:50;19.17;;;11.47;;
4810;SDS011;2419;51.276;6.472;2023-09-12T00:03:18;21.20;;;11.83;;
4810;SDS011;2419;51.276;6.472;2023-09-12T00:05:51;18.10;;;12.00;;
4810;SDS011;2419;51.276;6.472;2023-09-12T00:08:20;24.80;;;12.63;;
4810;SDS011;2419;51.276;6.472;2023-09-12T00:10:57;20.30;;;11.77;;
4810;SDS011;2419;51.276;6.472;2023-09-12T00:13:26;25.43;;;13.07;;
4810;SDS011;2419;51.276;6.472;2023-09-12T00:15:54;20.60;;;13.53;;
4810;SDS011;2419;51.276;6.472;2023-09-12T00:18:24;20.07;;;13.53;;
4810;SDS011;2419;51.276;6.472;2023-09-12T00:20:53;25.43;;;13.10;;
4810;SDS011;2419;51.276;6.472;2023-09-12T00:23:22;21.53;;;14.00;;
4810;SDS011;2419;51.276;6.472;2023-09-12T00:25:51;29.13;;;13.50;;
4810;SDS011;2419;51.276;6.472;2023-09-12T00:28:19;25.10;;;14.17;;
4810;SDS011;2419;51.276;6.472;2023-09-12T00:30:47;24.30;;;14.00;;
4810;SDS011;2419;51.276;6.472;2023-09-12T00:33:15;22.67;;;14.17;;
4810;SDS011;2419;51.276;6.472;2023-09-12T00:35:44;21.40;;;14.27;;
4810;SDS011;2419;51.276;6.472;2023-09-12T00:38:12;21.03;;;15.20;;
4810;SDS011;2419;51.276;6.472;2023-09-12T00:40:41;27.23;;;14.70;;
4810;SDS011;2419;51.276;6.472;2023-09-12T00:43:09;23.00;;;15.07;;
4810;SDS011;2419;51.276;6.472;2023-09-12T00:45:38;23.87;;;15.03;;
4810;SDS011;2419;51.276;6.472;2023-09-12T00:48:06;27.53;;;16.27;;
4810;SDS011;2419;51.276;6.472;2023-09-12T00:50:36;24.13;;;16.20;;
4810;SDS011;2419;51.276;6.472;2023-09-12T00:53:05;23.67;;;14.87;;
4810;SDS011;2419;51.276;6.472;2023-09-12T00:55:34;23.87;;;15.90;;
4810;SDS011;2419;51.276;6.472;2023-09-12T00:58:05;24.63;;;15.90;;
4810;SDS011;2419;51.276;6.472;2023-09-12T01:00:35;20.80;;;14.63;;
4810;SDS011;2419;51.276;6.472;2023-09-12T01:03:04;24.60;;;16.10;;
4810;SDS011;2419;51.276;6.472;2023-09-12T01:05:32;28.53;;;15.60;;
4810;SDS011;2419;51.276;6.472;2023-09-12T01:08:00;28.13;;;16.60;;
4810;SDS011;2419;51.276;6.472;2023-09-12T01:10:29;23.60;;;15.07;;
4810;SDS011;2419;51.276;6.472;2023-09-12T01:12:57;22.97;;;14.67;;
4810;SDS011;2419;51.276;6.472;2023-09-12T01:15:27;26.80;;;15.97;;
4810;SDS011;2419;51.276;6.472;2023-09-12T01:17:56;29.37;;;18.00;;
4810;SDS011;2419;51.276;6.472;2023-09-12T01:20:25;28.20;;;17.10;;
4810;SDS011;2419;51.276;6.472;2023-09-12T01:23:19;28.83;;;17.70;;
4810;SDS011;2419;51.276;6.472;2023-09-12T01:26:01;26.67;;;15.63;;
4810;SDS011;2419;51.276;6.472;2023-09-12T01:28:45;24.37;;;17.00;;
4810;SDS011;2419;51.276;6.472;2023-09-12T01:31:17;35.80;;;18.00;;
4810;SDS011;2419;51.276;6.472;2023-09-12T01:33:45;26.33;;;16.17;;
4810;SDS011;2419;51.276;6.472;2023-09-12T01:36:14;31.57;;;18.20;;
4810;SDS011;2419;51.276;6.472;2023-09-12T01:38:42;28.03;;;17.03;;
4810;SDS011;2419;51.276;6.472;2023-09-12T01:41:10;23.23;;;16.50;;
4810;SDS011;2419;51.276;6.472;2023-09-12T01:43:39;28.60;;;16.73;;
4810;SDS011;2419;51.276;6.472;2023-09-12T01:46:11;27.47;;;17.90;;
4810;SDS011;2419;51.276;6.472;2023-09-12T01:48:40;28.63;;;19.63;;
4810;SDS011;2419;51.276;6.472;2023-09-12T01:51:10;29.50;;;18.73;;
4810;SDS011;2419;51.276;6.472;2023-09-12T01:53:39;30.17;;;19.00;;
4810;SDS011;2419;51.276;6.472;2023-09-12T01:56:09;28.97;;;18.17;;
4810;SDS011;2419;51.276;6.472;2023-09-12T01:58:38;32.77;;;18.93;;
4810;SDS011;2419;51.276;6.472;2023-09-12T02:01:06;28.23;;;18.20;;
4810;SDS011;2419;51.276;6.472;2023-09-12T02:03:36;30.77;;;17.83;;
4810;SDS011;2419;51.276;6.472;2023-09-12T02:06:04;32.67;;;17.40;;
4810;SDS011;2419;51.276;6.472;2023-09-12T02:08:32;31.20;;;19.00;;
4810;SDS011;2419;51.276;6.472;2023-09-12T02:11:00;31.63;;;18.73;;
4810;SDS011;2419;51.276;6.472;2023-09-12T02:13:28;29.10;;;17.90;;
4810;SDS011;2419;51.276;6.472;2023-09-12T02:15:58;31.03;;;20.40;;
4810;SDS011;2419;51.276;6.472;2023-09-12T02:18:27;26.83;;;17.77;;
4810;SDS011;2419;51.276;6.472;2023-09-12T02:20:56;32.63;;;19.77;;
4810;SDS011;2419;51.276;6.472;2023-09-12T02:23:25;36.80;;;21.13;;
4810;SDS011;2419;51.276;6.472;2023-09-12T02:25:53;31.07;;;20.73;;
4810;SDS011;2419;51.276;6.472;2023-09-12T02:28:22;43.40;;;22.17;;
4810;SDS011;2419;51.276;6.472;2023-09-12T02:30:51;34.27;;;18.70;;
4810;SDS011;2419;51.276;6.472;2023-09-12T02:33:19;31.13;;;20.10;;
4810;SDS011;2419;51.276;6.472;2023-09-12T02:35:48;34.90;;;19.83;;
4810;SDS011;2419;51.276;6.472;2023-09-12T02:38:17;37.37;;;19.17;;
4810;SDS011;2419;51.276;6.472;2023-09-12T02:40:45;37.07;;;19.40;;
4810;SDS011;2419;51.276;6.472;2023-09-12T02:43:13;31.53;;;18.23;;
4810;SDS011;2419;51.276;6.472;2023-09-12T02:45:42;30.27;;;18.80;;
4810;SDS011;2419;51.276;6.472;2023-09-12T02:48:10;33.10;;;17.50;;
4810;SDS011;2419;51.276;6.472;2023-09-12T02:50:38;28.20;;;18.10;;
4810;SDS011;2419;51.276;6.472;2023-09-12T02:53:06;27.90;;;15.80;;
4810;SDS011;2419;51.276;6.472;2023-09-12T02:55:38;26.80;;;16.70;;
4810;SDS011;2419;51.276;6.472;2023-09-12T02:58:07;29.27;;;16.33;;
4810;SDS011;2419;51.276;6.472;2023-09-12T03:00:37;26.97;;;16.63;;
4810;SDS011;2419;51.276;6.472;2023-09-12T03:03:06;26.77;;;16.27;;
4810;SDS011;2419;51.276;6.472;2023-09-12T03:05:35;24.30;;;14.50;;
4810;SDS011;2419;51.276;6.472;2023-09-12T03:08:04;25.00;;;15.33;;
4810;SDS011;2419;51.276;6.472;2023-09-12T03:10:32;22.30;;;14.83;;
4810;SDS011;2419;51.276;6.472;2023-09-12T03:13:02;20.30;;;14.20;;
4810;SDS011;2419;51.276;6.472;2023-09-12T03:15:35;27.67;;;16.03;;
4810;SDS011;2419;51.276;6.472;2023-09-12T03:18:04;25.43;;;14.47;;
4810;SDS011;2419;51.276;6.472;2023-09-12T03:20:37;26.17;;;15.30;;
4810;SDS011;2419;51.276;6.472;2023-09-12T03:23:05;22.57;;;14.80;;
4810;SDS011;2419;51.276;6.472;2023-09-12T03:25:35;25.13;;;15.80;;
4810;SDS011;2419;51.276;6.472;2023-09-12T03:28:05;21.77;;;14.70;;
4810;SDS011;2419;51.276;6.472;2023-09-12T03:30:35;23.50;;;14.87;;
4810;SDS011;2419;51.276;6.472;2023-09-12T03:33:04;24.73;;;15.50;;
4810;SDS011;2419;51.276;6.472;2023-09-12T03:35:34;26.97;;;15.50;;
4810;SDS011;2419;51.276;6.472;2023-09-12T03:38:02;20.60;;;13.53;;
4810;SDS011;2419;51.276;6.472;2023-09-12T03:40:31;23.70;;;14.80;;
4810;SDS011;2419;51.276;6.472;2023-09-12T03:42:59;25.40;;;16.13;;
4810;SDS011;2419;51.276;6.472;2023-09-12T03:45:29;25.00;;;16.20;;
4810;SDS011;2419;51.276;6.472;2023-09-12T03:47:57;24.23;;;16.43;;
4810;SDS011;2419;51.276;6.472;2023-09-12T03:50:25;24.63;;;15.77;;
4810;SDS011;2419;51.276;6.472;2023-09-12T03:52:53;26.97;;;15.70;;
4810;SDS011;2419;51.276;6.472;2023-09-12T03:55:21;24.20;;;15.23;;
4810;SDS011;2419;51.276;6.472;2023-09-12T03:57:49;24.83;;;14.87;;
4810;SDS011;2419;51.276;6.472;2023-09-12T04:00:17;21.43;;;14.60;;
4810;SDS011;2419;51.276;6.472;2023-09-12T04:02:48;24.23;;;14.20;;
4810;SDS011;2419;51.276;6.472;2023-09-12T04:05:17;22.90;;;14.43;;
4810;SDS011;2419;51.276;6.472;2023-09-12T04:07:45;28.17;;;15.67;;
4810;SDS011;2419;51.276;6.472;2023-09-12T04:10:14;29.13;;;15.80;;
4810;SDS011;2419;51.276;6.472;2023-09-12T04:12:42;26.87;;;16.40;;
4810;SDS011;2419;51.276;6.472;2023-09-12T04:15:10;25.10;;;16.67;;
4810;SDS011;2419;51.276;6.472;2023-09-12T04:17:38;28.10;;;16.53;;
4810;SDS011;2419;51.276;6.472;2023-09-12T04:20:08;25.37;;;16.03;;
4810;SDS011;2419;51.276;6.472;2023-09-12T04:22:41;30.20;;;17.70;;
4810;SDS011;2419;51.276;6.472;2023-09-12T04:25:10;30.37;;;18.17;;
4810;SDS011;2419;51.276;6.472;2023-09-12T04:27:38;38.97;;;21.10;;
4810;SDS011;2419;51.276;6.472;2023-09-12T04:30:08;36.13;;;21.67;;
4810;SDS011;2419;51.276;6.472;2023-09-12T04:32:37;40.27;;;21.67;;
4810;SDS011;2419;51.276;6.472;2023-09-12T04:35:06;34.87;;;21.43;;
4810;SDS011;2419;51.276;6.472;2023-09-12T04:37:36;43.47;;;21.93;;
4810;SDS011;2419;51.276;6.472;2023-09-12T04:40:06;39.53;;;22.27;;
4810;SDS011;2419;51.276;6.472;2023-09-12T04:42:35;39.70;;;20.93;;
4810;SDS011;2419;51.276;6.472;2023-09-12T04:45:04;34.63;;;20.53;;
4810;SDS011;2419;51.276;6.472;2023-09-12T04:47:32;37.00;;;20.90;;
4810;SDS011;2419;51.276;6.472;2023-09-12T04:50:01;35.77;;;20.60;;
4810;SDS011;2419;51.276;6.472;2023-09-12T04:52:30;39.07;;;22.00;;
4810;SDS011;2419;51.276;6.472;2023-09-12T04:54:59;35.93;;;21.13;;
4810;SDS011;2419;51.276;6.472;2023-09-12T04:57:27;37.90;;;21.37;;
4810;SDS011;2419;51.276;6.472;2023-09-12T04:59:57;36.87;;;19.77;;
4810;SDS011;2419;51.276;6.472;2023-09-12T05:02:25;38.77;;;23.30;;
4810;SDS011;2419;51.276;6.472;2023-09-12T05:04:54;37.60;;;23.00;;
4810;SDS011;2419;51.276;6.472;2023-09-12T05:07:23;44.30;;;23.43;;
4810;SDS011;2419;51.276;6.472;2023-09-12T05:09:52;38.20;;;22.00;;
4810;SDS011;2419;51.276;6.472;2023-09-12T05:12:20;42.73;;;23.23;;
4810;SDS011;2419;51.276;6.472;2023-09-12T05:14:48;36.33;;;21.30;;
4810;SDS011;2419;51.276;6.472;2023-09-12T05:17:17;32.83;;;20.37;;
4810;SDS011;2419;51.276;6.472;2023-09-12T05:19:45;41.70;;;23.30;;
4810;SDS011;2419;51.276;6.472;2023-09-12T05:22:13;42.50;;;21.60;;
4810;SDS011;2419;51.276;6.472;2023-09-12T05:24:41;36.80;;;22.87;;
4810;SDS011;2419;51.276;6.472;2023-09-12T05:27:10;35.37;;;21.27;;
4810;SDS011;2419;51.276;6.472;2023-09-12T05:29:38;34.43;;;22.77;;
4810;SDS011;2419;51.276;6.472;2023-09-12T05:32:07;37.23;;;20.40;;
4810;SDS011;2419;51.276;6.472;2023-09-12T05:34:35;39.23;;;23.10;;
4810;SDS011;2419;51.276;6.472;2023-09-12T05:37:03;38.17;;;21.93;;
4810;SDS011;2419;51.276;6.472;2023-09-12T05:39:31;44.27;;;25.00;;
4810;SDS011;2419;51.276;6.472;2023-09-12T05:41:59;48.10;;;25.60;;
4810;SDS011;2419;51.276;6.472;2023-09-12T05:44:29;44.47;;;25.07;;
4810;SDS011;2419;51.276;6.472;2023-09-12T05:46:57;44.53;;;24.67;;
4810;SDS011;2419;51.276;6.472;2023-09-12T05:49:25;45.27;;;24.40;;
4810;SDS011;2419;51.276;6.472;2023-09-12T05:51:55;46.37;;;25.07;;
4810;SDS011;2419;51.276;6.472;2023-09-12T05:54:24;39.10;;;22.67;;
4810;SDS011;2419;51.276;6.472;2023-09-12T05:56:56;45.00;;;24.97;;
4810;SDS011;2419;51.276;6.472;2023-09-12T05:59:24;52.30;;;25.60;;
4810;SDS011;2419;51.276;6.472;2023-09-12T06:01:54;43.77;;;24.47;;
4810;SDS011;2419;51.276;6.472;2023-09-12T06:04:22;44.73;;;23.70;;
4810;SDS011;2419;51.276;6.472;2023-09-12T06:06:51;48.37;;;23.83;;
4810;SDS011;2419;51.276;6.472;2023-09-12T06:09:22;46.93;;;24.00;;
4810;SDS011;2419;51.276;6.472;2023-09-12T06:11:51;41.87;;;22.77;;
4810;SDS011;2419;51.276;6.472;2023-09-12T06:14:19;42.50;;;24.50;;
4810;SDS011;2419;51.276;6.472;2023-09-12T06:16:47;46.80;;;23.97;;
4810;SDS011;2419;51.276;6.472;2023-09-12T06:19:16;45.20;;;24.40;;
4810;SDS011;2419;51.276;6.472;2023-09-12T06:21:46;47.43;;;24.47;;
4810;SDS011;2419;51.276;6.472;2023-09-12T06:24:14;48.73;;;26.03;;
4810;SDS011;2419;51.276;6.472;2023-09-12T06:26:43;49.50;;;24.60;;
4810;SDS011;2419;51.276;6.472;2023-09-12T06:29:12;43.43;;;23.17;;
4810;SDS011;2419;51.276;6.472;2023-09-12T06:31:41;42.77;;;25.70;;
4810;SDS011;2419;51.276;6.472;2023-09-12T06:34:09;47.37;;;25.83;;
4810;SDS011;2419;51.276;6.472;2023-09-12T06:36:39;43.70;;;22.47;;
4810;SDS011;2419;51.276;6.472;2023-09-12T06:39:11;43.70;;;22.93;;
4810;SDS011;2419;51.276;6.472;2023-09-12T06:41:39;43.37;;;24.10;;
4810;SDS011;2419;51.276;6.472;2023-09-12T06:44:07;42.97;;;22.23;;
4810;SDS011;2419;51.276;6.472;2023-09-12T06:46:35;41.20;;;23.00;;
4810;SDS011;2419;51.276;6.472;2023-09-12T06:49:04;40.13;;;23.03;;
4810;SDS011;2419;51.276;6.472;2023-09-12T06:51:32;31.87;;;20.20;;
4810;SDS011;2419;51.276;6.472;2023-09-12T06:54:05;41.60;;;22.47;;
4810;SDS011;2419;51.276;6.472;2023-09-12T06:56:33;43.10;;;23.37;;
4810;SDS011;2419;51.276;6.472;2023-09-12T06:59:04;40.70;;;22.90;;
4810;SDS011;2419;51.276;6.472;2023-09-12T07:01:32;44.47;;;22.37;;
4810;SDS011;2419;51.276;6.472;2023-09-12T07:04:00;35.60;;;20.77;;
4810;SDS011;2419;51.276;6.472;2023-09-12T07:06:29;35.83;;;22.20;;
4810;SDS011;2419;51.276;6.472;2023-09-12T07:08:59;37.23;;;20.20;;
4810;SDS011;2419;51.276;6.472;2023-09-12T07:11:28;34.30;;;19.60;;
4810;SDS011;2419;51.276;6.472;2023-09-12T07:13:56;42.63;;;20.63;;
4810;SDS011;2419;51.276;6.472;2023-09-12T07:16:24;35.67;;;20.10;;
4810;SDS011;2419;51.276;6.472;2023-09-12T07:18:52;41.03;;;25.10;;
4810;SDS011;2419;51.276;6.472;2023-09-12T07:21:20;37.63;;;22.23;;
4810;SDS011;2419;51.276;6.472;2023-09-12T07:23:49;33.93;;;20.30;;
4810;SDS011;2419;51.276;6.472;2023-09-12T07:26:17;32.43;;;19.40;;
4810;SDS011;2419;51.276;6.472;2023-09-12T07:28:46;39.33;;;27.23;;
4810;SDS011;2419;51.276;6.472;2023-09-12T07:31:14;37.00;;;22.23;;
4810;SDS011;2419;51.276;6.472;2023-09-12T07:33:44;36.63;;;19.87;;
4810;SDS011;2419;51.276;6.472;2023-09-12T07:36:13;30.93;;;17.90;;
4810;SDS011;2419;51.276;6.472;2023-09-12T07:38:41;29.13;;;18.27;;
4810;SDS011;2419;51.276;6.472;2023-09-12T07:41:11;27.03;;;17.60;;
4810;SDS011;2419;51.276;6.472;2023-09-12T07:43:39;23.57;;;16.03;;
4810;SDS011;2419;51.276;6.472;2023-09-12T07:46:09;25.20;;;15.20;;
4810;SDS011;2419;51.276;6.472;2023-09-12T07:48:38;27.67;;;15.53;;
4810;SDS011;2419;51.276;6.472;2023-09-12T07:51:12;22.03;;;13.90;;
4810;SDS011;2419;51.276;6.472;2023-09-12T07:53:42;20.67;;;14.30;;
4810;SDS011;2419;51.276;6.472;2023-09-12T07:56:10;15.10;;;12.23;;
4810;SDS011;2419;51.276;6.472;2023-09-12T07:58:38;24.97;;;13.93;;
4810;SDS011;2419;51.276;6.472;2023-09-12T08:01:07;24.27;;;13.57;;
4810;SDS011;2419;51.276;6.472;2023-09-12T08:03:39;22.80;;;13.57;;
4810;SDS011;2419;51.276;6.472;2023-09-12T08:06:08;24.83;;;14.17;;
4810;SDS011;2419;51.276;6.472;2023-09-12T08:08:36;17.93;;;13.37;;
4810;SDS011;2419;51.276;6.472;2023-09-12T08:11:04;17.23;;;12.43;;
4810;SDS011;2419;51.276;6.472;2023-09-12T08:13:32;20.13;;;13.17;;
4810;SDS011;2419;51.276;6.472;2023-09-12T08:16:00;19.90;;;12.37;;
4810;SDS011;2419;51.276;6.472;2023-09-12T08:18:29;21.67;;;13.70;;
4810;SDS011;2419;51.276;6.472;2023-09-12T08:20:59;22.53;;;13.70;;
4810;SDS011;2419;51.276;6.472;2023-09-12T08:23:28;17.03;;;11.73;;
4810;SDS011;2419;51.276;6.472;2023-09-12T08:25:56;20.97;;;11.93;;
4810;SDS011;2419;51.276;6.472;2023-09-12T08:28:24;23.00;;;12.07;;
4810;SDS011;2419;51.276;6.472;2023-09-12T08:30:53;21.10;;;12.57;;
4810;SDS011;2419;51.276;6.472;2023-09-12T08:33:21;27.00;;;13.90;;
4810;SDS011;2419;51.276;6.472;2023-09-12T08:35:52;18.03;;;11.90;;
4810;SDS011;2419;51.276;6.472;2023-09-12T08:38:22;19.17;;;11.03;;
4810;SDS011;2419;51.276;6.472;2023-09-12T08:40:51;15.70;;;10.03;;
4810;SDS011;2419;51.276;6.472;2023-09-12T08:43:20;14.80;;;8.73;;
4810;SDS011;2419;51.276;6.472;2023-09-12T08:45:48;10.50;;;8.40;;
4810;SDS011;2419;51.276;6.472;2023-09-12T08:48:17;10.90;;;8.87;;
4810;SDS011;2419;51.276;6.472;2023-09-12T08:50:50;8.80;;;7.77;;
4810;SDS011;2419;51.276;6.472;2023-09-12T08:53:22;9.47;;;7.67;;
4810;SDS011;2419;51.276;6.472;2023-09-12T08:55:51;10.70;;;8.20;;
4810;SDS011;2419;51.276;6.472;2023-09-12T08:58:20;11.67;;;7.73;;
4810;SDS011;2419;51.276;6.472;2023-09-12T09:00:49;9.27;;;7.53;;
4810;SDS011;2419;51.276;6.472;2023-09-12T09:03:18;7.73;;;6.37;;
4810;SDS011;2419;51.276;6.472;2023-09-12T09:05:48;10.43;;;8.50;;
4810;SDS011;2419;51.276;6.472;2023-09-12T09:08:18;8.30;;;5.67;;
4810;SDS011;2419;51.276;6.472;2023-09-12T09:10:56;10.70;;;7.80;;
4810;SDS011;2419;51.276;6.472;2023-09-12T09:13:24;7.13;;;5.40;;
4810;SDS011;2419;51.276;6.472;2023-09-12T09:16:08;9.03;;;6.03;;
4810;SDS011;2419;51.276;6.472;2023-09-12T09:18:51;8.03;;;5.67;;
4810;SDS011;2419;51.276;6.472;2023-09-12T09:21:20;8.50;;;5.23;;
4810;SDS011;2419;51.276;6.472;2023-09-12T09:23:52;9.40;;;4.60;;
4810;SDS011;2419;51.276;6.472;2023-09-12T09:26:21;5.40;;;4.47;;
4810;SDS011;2419;51.276;6.472;2023-09-12T09:29:02;8.10;;;5.47;;
4810;SDS011;2419;51.276;6.472;2023-09-12T09:31:31;6.83;;;4.13;;
4810;SDS011;2419;51.276;6.472;2023-09-12T09:34:00;9.27;;;5.80;;
4810;SDS011;2419;51.276;6.472;2023-09-12T09:36:31;7.87;;;4.50;;
4810;SDS011;2419;51.276;6.472;2023-09-12T09:39:01;5.13;;;4.50;;
4810;SDS011;2419;51.276;6.472;2023-09-12T09:41:31;4.70;;;3.10;;
4810;SDS011;2419;51.276;6.472;2023-09-12T09:44:00;4.73;;;3.57;;
4810;SDS011;2419;51.276;6.472;2023-09-12T09:46:28;3.70;;;3.30;;
4810;SDS011;2419;51.276;6.472;2023-09-12T09:48:56;4.83;;;3.70;;
4810;SDS011;2419;51.276;6.472;2023-09-12T09:51:25;3.93;;;3.53;;
4810;SDS011;2419;51.276;6.472;2023-09-12T09:53:53;9.07;;;4.77;;
4810;SDS011;2419;51.276;6.472;2023-09-12T09:56:26;5.80;;;4.30;;
4810;SDS011;2419;51.276;6.472;2023-09-12T09:58:54;5.10;;;3.57;;
4810;SDS011;2419;51.276;6.472;2023-09-12T10:01:23;5.63;;;4.23;;
4810;SDS011;2419;51.276;6.472;2023-09-12T10:03:57;14.37;;;6.17;;
4810;SDS011;2419;51.276;6.472;2023-09-12T10:06:27;8.83;;;5.63;;
4810;SDS011;2419;51.276;6.472;2023-09-12T10:08:56;5.00;;;3.73;;
4810;SDS011;2419;51.276;6.472;2023-09-12T10:11:27;7.10;;;4.80;;
4810;SDS011;2419;51.276;6.472;2023-09-12T10:13:59;6.97;;;4.10;;
4810;SDS011;2419;51.276;6.472;2023-09-12T10:16:31;5.63;;;4.40;;
4810;SDS011;2419;51.276;6.472;2023-09-12T10:19:04;5.20;;;3.87;;
4810;SDS011;2419;51.276;6.472;2023-09-12T10:21:38;3.63;;;3.30;;
4810;SDS011;2419;51.276;6.472;2023-09-12T10:24:13;6.90;;;3.90;;
4810;SDS011;2419;51.276;6.472;2023-09-12T10:26:44;4.77;;;3.10;;
4810;SDS011;2419;51.276;6.472;2023-09-12T10:29:13;4.47;;;3.60;;
4810;SDS011;2419;51.276;6.472;2023-09-12T10:31:41;4.97;;;3.60;;
4810;SDS011;2419;51.276;6.472;2023-09-12T10:34:11;3.63;;;3.20;;
4810;SDS011;2419;51.276;6.472;2023-09-12T10:36:44;4.60;;;3.43;;
4810;SDS011;2419;51.276;6.472;2023-09-12T10:39:14;4.23;;;3.70;;
4810;SDS011;2419;51.276;6.472;2023-09-12T10:41:44;4.07;;;3.50;;
4810;SDS011;2419;51.276;6.472;2023-09-12T10:44:15;4.10;;;3.70;;
4810;SDS011;2419;51.276;6.472;2023-09-12T10:46:44;6.10;;;4.60;;
4810;SDS011;2419;51.276;6.472;2023-09-12T10:49:13;4.13;;;3.40;;
4810;SDS011;2419;51.276;6.472;2023-09-12T10:51:43;5.17;;;4.20;;
4810;SDS011;2419;51.276;6.472;2023-09-12T10:54:13;4.50;;;4.10;;
4810;SDS011;2419;51.276;6.472;2023-09-12T10:56:43;3.80;;;3.30;;
4810;SDS011;2419;51.276;6.472;2023-09-12T10:59:17;5.40;;;3.77;;
4810;SDS011;2419;51.276;6.472;2023-09-12T11:01:45;4.60;;;3.47;;
4810;SDS011;2419;51.276;6.472;2023-09-12T11:04:29;4.77;;;3.80;;
4810;SDS011;2419;51.276;6.472;2023-09-12T11:10:16;4.90;;;4.03;;
4810;SDS011;2419;51.276;6.472;2023-09-12T11:12:47;5.00;;;4.23;;
4810;SDS011;2419;51.276;6.472;2023-09-12T11:15:17;6.17;;;4.23;;
4810;SDS011;2419;51.276;6.472;2023-09-12T11:17:48;11.57;;;4.40;;
4810;SDS011;2419;51.276;6.472;2023-09-12T11:20:27;4.20;;;3.80;;
4810;SDS011;2419;51.276;6.472;2023-09-12T11:23:20;5.17;;;4.17;;
4810;SDS011;2419;51.276;6.472;2023-09-12T11:25:48;4.40;;;3.70;;
4810;SDS011;2419;51.276;6.472;2023-09-12T11:28:31;3.90;;;3.40;;
4810;SDS011;2419;51.276;6.472;2023-09-12T11:30:59;5.40;;;4.90;;
4810;SDS011;2419;51.276;6.472;2023-09-12T11:33:28;6.10;;;5.10;;
4810;SDS011;2419;51.276;6.472;2023-09-12T11:35:56;6.53;;;4.40;;
4810;SDS011;2419;51.276;6.472;2023-09-12T11:38:27;5.37;;;4.20;;
4810;SDS011;2419;51.276;6.472;2023-09-12T11:40:57;5.37;;;4.37;;
4810;SDS011;2419;51.276;6.472;2023-09-12T11:43:26;4.83;;;4.10;;
4810;SDS011;2419;51.276;6.472;2023-09-12T11:45:56;6.37;;;5.00;;
4810;SDS011;2419;51.276;6.472;2023-09-12T11:48:25;5.17;;;4.40;;
4810;SDS011;2419;51.276;6.472;2023-09-12T11:50:56;5.13;;;4.17;;
4810;SDS011;2419;51.276;6.472;2023-09-12T11:53:25;4.57;;;3.83;;
4810;SDS011;2419;51.276;6.472;2023-09-12T11:55:58;5.20;;;4.07;;
4810;SDS011;2419;51.276;6.472;2023-09-12T11:58:26;6.57;;;4.67;;
4810;SDS011;2419;51.276;6.472;2023-09-12T12:00:56;4.67;;;4.17;;
4810;SDS011;2419;51.276;6.472;2023-09-12T12:03:26;4.13;;;3.73;;
4810;SDS011;2419;51.276;6.472;2023-09-12T12:05:55;7.40;;;4.63;;
4810;SDS011;2419;51.276;6.472;2023-09-12T12:08:24;5.93;;;4.10;;
4810;SDS011;2419;51.276;6.472;2023-09-12T12:10:58;5.10;;;3.97;;
4810;SDS011;2419;51.276;6.472;2023-09-12T12:13:27;7.10;;;4.20;;
4810;SDS011;2419;51.276;6.472;2023-09-12T12:16:15;6.97;;;4.20;;
4810;SDS011;2419;51.276;6.472;2023-09-12T12:18:43;4.23;;;3.83;;
4810;SDS011;2419;51.276;6.472;2023-09-12T12:21:12;5.87;;;4.00;;
4810;SDS011;2419;51.276;6.472;2023-09-12T12:23:40;8.10;;;3.97;;
4810;SDS011;2419;51.276;6.472;2023-09-12T12:26:08;4.50;;;3.70;;
4810;SDS011;2419;51.276;6.472;2023-09-12T12:28:37;5.50;;;4.00;;
4810;SDS011;2419;51.276;6.472;2023-09-12T12:31:05;4.90;;;4.30;;
4810;SDS011;2419;51.276;6.472;2023-09-12T12:33:35;5.63;;;3.70;;
4810;SDS011;2419;51.276;6.472;2023-09-12T12:36:23;4.33;;;3.40;;
4810;SDS011;2419;51.276;6.472;2023-09-12T12:38:51;6.30;;;4.23;;
4810;SDS011;2419;51.276;6.472;2023-09-12T12:41:23;4.90;;;3.70;;
4810;SDS011;2419;51.276;6.472;2023-09-12T12:43:56;5.10;;;3.87;;
4810;SDS011;2419;51.276;6.472;2023-09-12T12:46:28;5.60;;;4.03;;
4810;SDS011;2419;51.276;6.472;2023-09-12T12:48:58;4.77;;;3.60;;
4810;SDS011;2419;51.276;6.472;2023-09-12T12:51:26;3.97;;;3.57;;
4810;SDS011;2419;51.276;6.472;2023-09-12T12:54:03;3.37;;;3.03;;
4810;SDS011;2419;51.276;6.472;2023-09-12T12:56:32;3.80;;;3.50;;
4810;SDS011;2419;51.276;6.472;2023-09-12T12:59:01;4.70;;;3.80;;
4810;SDS011;2419;51.276;6.472;2023-09-12T13:01:33;2.73;;;2.53;;
4810;SDS011;2419;51.276;6.472;2023-09-12T13:04:03;3.80;;;3.40;;
4810;SDS011;2419;51.276;6.472;2023-09-12T13:06:33;3.23;;;2.80;;
4810;SDS011;2419;51.276;6.472;2023-09-12T13:09:03;3.90;;;3.00;;
4810;SDS011;2419;51.276;6.472;2023-09-12T13:11:32;3.97;;;3.30;;
4810;SDS011;2419;51.276;6.472;2023-09-12T13:14:01;4.27;;;3.30;;
4810;SDS011;2419;51.276;6.472;2023-09-12T13:16:35;6.33;;;4.13;;
4810;SDS011;2419;51.276;6.472;2023-09-12T13:19:05;8.00;;;3.90;;
4810;SDS011;2419;51.276;6.472;2023-09-12T13:21:33;6.43;;;4.40;;
4810;SDS011;2419;51.276;6.472;2023-09-12T13:24:01;6.43;;;5.03;;
4810;SDS011;2419;51.276;6.472;2023-09-12T13:26:30;9.83;;;4.80;;
4810;SDS011;2419;51.276;6.472;2023-09-12T13:28:58;5.30;;;4.20;;
4810;SDS011;2419;51.276;6.472;2023-09-12T13:31:26;6.60;;;4.43;;
4810;SDS011;2419;51.276;6.472;2023-09-12T13:33:54;4.63;;;4.10;;
4810;SDS011;2419;51.276;6.472;2023-09-12T13:36:23;5.50;;;5.00;;
4810;SDS011;2419;51.276;6.472;2023-09-12T13:38:52;7.90;;;5.23;;
4810;SDS011;2419;51.276;6.472;2023-09-12T13:41:20;6.90;;;4.27;;
4810;SDS011;2419;51.276;6.472;2023-09-12T13:43:48;8.23;;;4.37;;
4810;SDS011;2419;51.276;6.472;2023-09-12T13:46:16;6.03;;;4.73;;
4810;SDS011;2419;51.276;6.472;2023-09-12T13:48:45;4.83;;;4.30;;
4810;SDS011;2419;51.276;6.472;2023-09-12T13:51:15;6.00;;;5.00;;
4810;SDS011;2419;51.276;6.472;2023-09-12T13:53:44;6.57;;;3.87;;
4810;SDS011;2419;51.276;6.472;2023-09-12T13:56:12;4.37;;;3.73;;
4810;SDS011;2419;51.276;6.472;2023-09-12T13:58:46;6.30;;;4.43;;
4810;SDS011;2419;51.276;6.472;2023-09-12T14:01:16;4.70;;;3.90;;
4810;SDS011;2419;51.276;6.472;2023-09-12T14:03:58;5.47;;;3.93;;
4810;SDS011;2419;51.276;6.472;2023-09-12T14:06:27;9.50;;;3.90;;
4810;SDS011;2419;51.276;6.472;2023-09-12T14:08:57;4.23;;;3.27;;
4810;SDS011;2419;51.276;6.472;2023-09-12T14:11:25;5.20;;;4.70;;
4810;SDS011;2419;51.276;6.472;2023-09-12T14:14:01;6.17;;;4.87;;
4810;SDS011;2419;51.276;6.472;2023-09-12T14:16:42;6.80;;;4.87;;
4810;SDS011;2419;51.276;6.472;2023-09-12T14:19:14;6.40;;;5.13;;
4810;SDS011;2419;51.276;6.472;2023-09-12T14:21:43;5.80;;;4.60;;
4810;SDS011;2419;51.276;6.472;2023-09-12T14:24:14;8.87;;;5.40;;
4810;SDS011;2419;51.276;6.472;2023-09-12T14:26:46;6.97;;;5.13;;
4810;SDS011;2419;51.276;6.472;2023-09-12T14:29:15;6.83;;;5.03;;
4810;SDS011;2419;51.276;6.472;2023-09-12T14:31:43;7.70;;;5.10;;
4810;SDS011;2419;51.276;6.472;2023-09-12T14:34:17;9.87;;;6.20;;
4810;SDS011;2419;51.276;6.472;2023-09-12T14:36:45;7.13;;;6.43;;
4810;SDS011;2419;51.276;6.472;2023-09-12T14:39:15;5.40;;;4.87;;
4810;SDS011;2419;51.276;6.472;2023-09-12T14:41:43;6.80;;;5.60;;
4810;SDS011;2419;51.276;6.472;2023-09-12T14:44:16;9.70;;;5.67;;
4810;SDS011;2419;51.276;6.472;2023-09-12T14:46:44;6.20;;;5.40;;
4810;SDS011;2419;51.276;6.472;2023-09-12T14:49:13;10.40;;;6.13;;
4810;SDS011;2419;51.276;6.472;2023-09-12T14:51:41;8.30;;;5.43;;
4810;SDS011;2419;51.276;6.472;2023-09-12T14:54:09;12.67;;;5.87;;
4810;SDS011;2419;51.276;6.472;2023-09-12T14:56:39;7.90;;;4.93;;
4810;SDS011;2419;51.276;6.472;2023-09-12T14:59:08;6.03;;;4.90;;
4810;SDS011;2419;51.276;6.472;2023-09-12T15:01:37;7.17;;;6.07;;
4810;SDS011;2419;51.276;6.472;2023-09-12T15:04:05;10.10;;;5.60;;
4810;SDS011;2419;51.276;6.472;2023-09-12T15:06:33;6.67;;;5.00;;
4810;SDS011;2419;51.276;6.472;2023-09-12T15:09:01;6.40;;;5.50;;
4810;SDS011;2419;51.276;6.472;2023-09-12T15:11:30;8.20;;;5.07;;
4810;SDS011;2419;51.276;6.472;2023-09-12T15:13:59;5.80;;;4.97;;
4810;SDS011;2419;51.276;6.472;2023-09-12T15:16:28;7.57;;;4.97;;